sensor_id;sensor_type;location;lat;lon;timestamp;P1;durP1;ratioP1;P2;durP2;ratioP2
7647;SDS011;3866;48.020;11.720;2023-06-22T00:01:15;9.43;;;5.00;;
7647;SDS011;3866;48.020;11.720;2023-06-22T00:03:42;10.33;;;5.93;;
7647;SDS011;3866;48.020;11.720;2023-06-22T00:06:09;20.53;;;6.90;;
7647;SDS011;3866;48.020;11.720;2023-06-22T00:08:36;9.87;;;6.13;;
7647;SDS011;3866;48.020;11.720;2023-06-22T00:11:03;12.77;;;6.43;;
7647;SDS011;3866;48.020;11.720;2023-06-22T00:13:31;13.17;;;6.53;;
7647;SDS011;3866;48.020;11.720;2023-06-22T00:15:58;15.43;;;6.93;;
7647;SDS011;3866;48.020;11.720;2023-06-22T00:18:25;10.90;;;6.30;;
7647;SDS011;3866;48.020;11.720;2023-06-22T00:20:53;14.73;;;6.83;;
7647;SDS011;3866;48.020;11.720;2023-06-22T00:23:23;17.03;;;7.17;;
7647;SDS011;3866;48.020;11.720;2023-06-22T00:25:50;12.53;;;7.20;;
7647;SDS011;3866;48.020;11.720;2023-06-22T00:28:17;19.93;;;7.37;;
7647;SDS011;3866;48.020;11.720;2023-06-22T00:30:45;12.30;;;8.07;;
7647;SDS011;3866;48.020;11.720;2023-06-22T00:33:12;12.63;;;7.80;;
7647;SDS011;3866;48.020;11.720;2023-06-22T00:35:41;13.90;;;8.83;;
7647;SDS011;3866;48.020;11.720;2023-06-22T00:38:08;12.93;;;8.60;;
7647;SDS011;3866;48.020;11.720;2023-06-22T00:40:35;14.37;;;9.20;;
7647;SDS011;3866;48.020;11.720;2023-06-22T00:43:02;12.30;;;8.87;;
7647;SDS011;3866;48.020;11.720;2023-06-22T00:45:29;12.47;;;8.70;;
7647;SDS011;3866;48.020;11.720;2023-06-22T00:47:57;14.90;;;9.00;;
7647;SDS011;3866;48.020;11.720;2023-06-22T00:50:26;16.10;;;9.40;;
7647;SDS011;3866;48.020;11.720;2023-06-22T00:52:54;12.63;;;9.20;;
7647;SDS011;3866;48.020;11.720;2023-06-22T00:55:23;17.60;;;9.27;;
7647;SDS011;3866;48.020;11.720;2023-06-22T00:57:51;13.47;;;9.00;;
7647;SDS011;3866;48.020;11.720;2023-06-22T01:00:21;15.53;;;8.40;;
7647;SDS011;3866;48.020;11.720;2023-06-22T01:02:49;14.67;;;8.33;;
7647;SDS011;3866;48.020;11.720;2023-06-22T01:05:19;13.33;;;8.70;;
7647;SDS011;3866;48.020;11.720;2023-06-22T01:07:51;12.13;;;8.37;;
7647;SDS011;3866;48.020;11.720;2023-06-22T01:10:27;13.03;;;7.60;;
7647;SDS011;3866;48.020;11.720;2023-06-22T01:13:01;11.13;;;8.63;;
7647;SDS011;3866;48.020;11.720;2023-06-22T01:15:31;14.93;;;8.63;;
7647;SDS011;3866;48.020;11.720;2023-06-22T01:18:03;13.33;;;8.00;;
7647;SDS011;3866;48.020;11.720;2023-06-22T01:20:32;15.23;;;7.60;;
7647;SDS011;3866;48.020;11.720;2023-06-22T01:23:07;14.77;;;8.97;;
7647;SDS011;3866;48.020;11.720;2023-06-22T01:25:41;13.70;;;7.50;;
7647;SDS011;3866;48.020;11.720;2023-06-22T01:28:17;15.67;;;7.23;;
7647;SDS011;3866;48.020;11.720;2023-06-22T01:30:53;10.30;;;7.37;;
7647;SDS011;3866;48.020;11.720;2023-06-22T01:33:31;14.53;;;7.10;;
7647;SDS011;3866;48.020;11.720;2023-06-22T01:36:01;14.77;;;6.60;;
7647;SDS011;3866;48.020;11.720;2023-06-22T01:38:29;15.70;;;7.53;;
7647;SDS011;3866;48.020;11.720;2023-06-22T01:40:57;9.17;;;6.73;;
7647;SDS011;3866;48.020;11.720;2023-06-22T01:43:26;10.67;;;6.57;;
7647;SDS011;3866;48.020;11.720;2023-06-22T01:45:55;10.33;;;6.73;;
7647;SDS011;3866;48.020;11.720;2023-06-22T01:48:23;10.73;;;6.47;;
7647;SDS011;3866;48.020;11.720;2023-06-22T01:50:51;9.40;;;6.17;;
7647;SDS011;3866;48.020;11.720;2023-06-22T01:53:20;21.60;;;11.30;;
7647;SDS011;3866;48.020;11.720;2023-06-22T01:55:47;14.77;;;8.03;;
7647;SDS011;3866;48.020;11.720;2023-06-22T01:58:14;11.13;;;7.30;;
7647;SDS011;3866;48.020;11.720;2023-06-22T02:00:44;15.20;;;6.40;;
7647;SDS011;3866;48.020;11.720;2023-06-22T02:03:17;15.23;;;6.50;;
7647;SDS011;3866;48.020;11.720;2023-06-22T02:05:47;10.53;;;6.40;;
7647;SDS011;3866;48.020;11.720;2023-06-22T02:08:19;12.50;;;5.50;;
7647;SDS011;3866;48.020;11.720;2023-06-22T02:10:51;9.90;;;5.40;;
7647;SDS011;3866;48.020;11.720;2023-06-22T02:13:19;10.10;;;6.17;;
7647;SDS011;3866;48.020;11.720;2023-06-22T02:15:46;8.53;;;5.73;;
7647;SDS011;3866;48.020;11.720;2023-06-22T02:18:15;9.13;;;6.10;;
7647;SDS011;3866;48.020;11.720;2023-06-22T02:20:42;10.43;;;6.63;;
7647;SDS011;3866;48.020;11.720;2023-06-22T02:23:09;11.80;;;5.93;;
7647;SDS011;3866;48.020;11.720;2023-06-22T02:25:36;7.83;;;5.13;;
7647;SDS011;3866;48.020;11.720;2023-06-22T02:28:03;10.70;;;6.33;;
7647;SDS011;3866;48.020;11.720;2023-06-22T02:30:30;10.67;;;6.57;;
7647;SDS011;3866;48.020;11.720;2023-06-22T02:32:57;13.13;;;6.40;;
7647;SDS011;3866;48.020;11.720;2023-06-22T02:35:26;11.87;;;6.70;;
7647;SDS011;3866;48.020;11.720;2023-06-22T02:37:56;11.80;;;6.83;;
7647;SDS011;3866;48.020;11.720;2023-06-22T02:40:24;11.80;;;6.50;;
7647;SDS011;3866;48.020;11.720;2023-06-22T02:42:51;10.53;;;6.67;;
7647;SDS011;3866;48.020;11.720;2023-06-22T02:45:18;13.47;;;6.77;;
7647;SDS011;3866;48.020;11.720;2023-06-22T02:47:45;11.47;;;6.97;;
7647;SDS011;3866;48.020;11.720;2023-06-22T02:50:12;9.43;;;7.07;;
7647;SDS011;3866;48.020;11.720;2023-06-22T02:52:41;12.60;;;6.87;;
7647;SDS011;3866;48.020;11.720;2023-06-22T02:55:08;12.70;;;6.83;;
7647;SDS011;3866;48.020;11.720;2023-06-22T02:57:35;10.00;;;6.33;;
7647;SDS011;3866;48.020;11.720;2023-06-22T03:00:02;10.50;;;6.70;;
7647;SDS011;3866;48.020;11.720;2023-06-22T03:02:41;9.23;;;6.77;;
7647;SDS011;3866;48.020;11.720;2023-06-22T03:05:08;9.50;;;6.37;;
7647;SDS011;3866;48.020;11.720;2023-06-22T03:07:38;11.10;;;6.37;;
7647;SDS011;3866;48.020;11.720;2023-06-22T03:10:07;10.77;;;6.77;;
7647;SDS011;3866;48.020;11.720;2023-06-22T03:12:35;12.50;;;6.97;;
7647;SDS011;3866;48.020;11.720;2023-06-22T03:15:02;10.30;;;6.30;;
7647;SDS011;3866;48.020;11.720;2023-06-22T03:17:30;9.40;;;6.50;;
7647;SDS011;3866;48.020;11.720;2023-06-22T03:19:57;9.63;;;6.17;;
7647;SDS011;3866;48.020;11.720;2023-06-22T03:22:24;12.23;;;6.43;;
7647;SDS011;3866;48.020;11.720;2023-06-22T03:24:52;11.77;;;7.17;;
7647;SDS011;3866;48.020;11.720;2023-06-22T03:27:19;10.03;;;6.67;;
7647;SDS011;3866;48.020;11.720;2023-06-22T03:29:46;10.83;;;7.07;;
7647;SDS011;3866;48.020;11.720;2023-06-22T03:32:13;10.80;;;7.20;;
7647;SDS011;3866;48.020;11.720;2023-06-22T03:34:40;12.17;;;7.70;;
7647;SDS011;3866;48.020;11.720;2023-06-22T03:37:12;12.37;;;7.30;;
7647;SDS011;3866;48.020;11.720;2023-06-22T03:39:39;9.63;;;6.87;;
7647;SDS011;3866;48.020;11.720;2023-06-22T03:42:07;10.13;;;5.93;;
7647;SDS011;3866;48.020;11.720;2023-06-22T03:44:34;10.47;;;6.83;;
7647;SDS011;3866;48.020;11.720;2023-06-22T03:47:01;8.97;;;6.23;;
7647;SDS011;3866;48.020;11.720;2023-06-22T03:49:29;12.43;;;6.60;;
7647;SDS011;3866;48.020;11.720;2023-06-22T03:51:55;10.57;;;6.20;;
7647;SDS011;3866;48.020;11.720;2023-06-22T03:54:22;12.00;;;6.30;;
7647;SDS011;3866;48.020;11.720;2023-06-22T03:56:49;10.87;;;6.17;;
7647;SDS011;3866;48.020;11.720;2023-06-22T03:59:17;12.43;;;6.43;;
7647;SDS011;3866;48.020;11.720;2023-06-22T04:01:44;15.30;;;6.97;;
7647;SDS011;3866;48.020;11.720;2023-06-22T04:04:11;10.23;;;6.97;;
7647;SDS011;3866;48.020;11.720;2023-06-22T04:06:38;14.47;;;7.30;;
7647;SDS011;3866;48.020;11.720;2023-06-22T04:09:05;13.33;;;6.77;;
7647;SDS011;3866;48.020;11.720;2023-06-22T04:11:32;9.40;;;6.63;;
7647;SDS011;3866;48.020;11.720;2023-06-22T04:13:59;15.70;;;7.00;;
7647;SDS011;3866;48.020;11.720;2023-06-22T04:16:27;14.50;;;7.63;;
7647;SDS011;3866;48.020;11.720;2023-06-22T04:18:54;16.33;;;8.07;;
7647;SDS011;3866;48.020;11.720;2023-06-22T04:21:21;12.90;;;7.47;;
7647;SDS011;3866;48.020;11.720;2023-06-22T04:23:48;10.67;;;6.97;;
7647;SDS011;3866;48.020;11.720;2023-06-22T04:26:15;9.23;;;6.97;;
7647;SDS011;3866;48.020;11.720;2023-06-22T04:28:42;16.57;;;7.30;;
7647;SDS011;3866;48.020;11.720;2023-06-22T04:31:16;12.90;;;7.67;;
7647;SDS011;3866;48.020;11.720;2023-06-22T04:33:44;11.40;;;7.20;;
7647;SDS011;3866;48.020;11.720;2023-06-22T04:36:11;15.67;;;8.07;;
7647;SDS011;3866;48.020;11.720;2023-06-22T04:38:38;14.57;;;8.60;;
7647;SDS011;3866;48.020;11.720;2023-06-22T04:41:05;13.23;;;8.13;;
7647;SDS011;3866;48.020;11.720;2023-06-22T04:43:34;15.03;;;8.73;;
7647;SDS011;3866;48.020;11.720;2023-06-22T04:46:01;14.73;;;8.10;;
7647;SDS011;3866;48.020;11.720;2023-06-22T04:48:29;12.47;;;8.03;;
7647;SDS011;3866;48.020;11.720;2023-06-22T04:50:59;12.57;;;7.90;;
7647;SDS011;3866;48.020;11.720;2023-06-22T04:53:28;11.00;;;7.90;;
7647;SDS011;3866;48.020;11.720;2023-06-22T04:55:55;12.30;;;8.17;;
7647;SDS011;3866;48.020;11.720;2023-06-22T04:58:22;12.37;;;8.20;;
7647;SDS011;3866;48.020;11.720;2023-06-22T05:00:52;12.77;;;8.40;;
7647;SDS011;3866;48.020;11.720;2023-06-22T05:03:22;18.47;;;9.00;;
7647;SDS011;3866;48.020;11.720;2023-06-22T05:05:51;13.23;;;9.00;;
7647;SDS011;3866;48.020;11.720;2023-06-22T05:08:20;17.63;;;8.73;;
7647;SDS011;3866;48.020;11.720;2023-06-22T05:10:53;11.13;;;8.60;;
7647;SDS011;3866;48.020;11.720;2023-06-22T05:13:20;12.47;;;9.30;;
7647;SDS011;3866;48.020;11.720;2023-06-22T05:15:51;13.43;;;8.77;;
7647;SDS011;3866;48.020;11.720;2023-06-22T05:18:20;12.13;;;9.00;;
7647;SDS011;3866;48.020;11.720;2023-06-22T05:20:48;14.40;;;8.73;;
7647;SDS011;3866;48.020;11.720;2023-06-22T05:23:15;17.90;;;9.60;;
7647;SDS011;3866;48.020;11.720;2023-06-22T05:25:43;15.60;;;8.97;;
7647;SDS011;3866;48.020;11.720;2023-06-22T05:28:10;15.70;;;8.60;;
7647;SDS011;3866;48.020;11.720;2023-06-22T05:30:37;14.43;;;9.20;;
7647;SDS011;3866;48.020;11.720;2023-06-22T05:33:04;19.67;;;9.30;;
7647;SDS011;3866;48.020;11.720;2023-06-22T05:35:31;15.07;;;8.80;;
7647;SDS011;3866;48.020;11.720;2023-06-22T05:37:58;12.87;;;9.37;;
7647;SDS011;3866;48.020;11.720;2023-06-22T05:40:25;16.93;;;8.97;;
7647;SDS011;3866;48.020;11.720;2023-06-22T05:42:53;16.63;;;9.10;;
7647;SDS011;3866;48.020;11.720;2023-06-22T05:45:20;12.87;;;8.67;;
7647;SDS011;3866;48.020;11.720;2023-06-22T05:47:47;13.20;;;8.60;;
7647;SDS011;3866;48.020;11.720;2023-06-22T05:50:14;14.97;;;8.00;;
7647;SDS011;3866;48.020;11.720;2023-06-22T05:52:40;15.77;;;8.17;;
7647;SDS011;3866;48.020;11.720;2023-06-22T05:55:08;12.27;;;7.80;;
7647;SDS011;3866;48.020;11.720;2023-06-22T05:57:35;15.53;;;8.17;;
7647;SDS011;3866;48.020;11.720;2023-06-22T06:00:03;13.00;;;8.90;;
7647;SDS011;3866;48.020;11.720;2023-06-22T06:02:35;13.93;;;8.70;;
7647;SDS011;3866;48.020;11.720;2023-06-22T06:05:02;14.97;;;8.37;;
7647;SDS011;3866;48.020;11.720;2023-06-22T06:07:29;15.03;;;8.47;;
7647;SDS011;3866;48.020;11.720;2023-06-22T06:09:59;11.23;;;7.70;;
7647;SDS011;3866;48.020;11.720;2023-06-22T06:12:26;13.20;;;7.80;;
7647;SDS011;3866;48.020;11.720;2023-06-22T06:14:53;13.20;;;7.83;;
7647;SDS011;3866;48.020;11.720;2023-06-22T06:17:23;13.90;;;8.27;;
7647;SDS011;3866;48.020;11.720;2023-06-22T06:19:49;13.10;;;8.37;;
7647;SDS011;3866;48.020;11.720;2023-06-22T06:22:16;13.07;;;7.87;;
7647;SDS011;3866;48.020;11.720;2023-06-22T06:24:43;15.90;;;7.53;;
7647;SDS011;3866;48.020;11.720;2023-06-22T06:27:10;12.73;;;7.97;;
7647;SDS011;3866;48.020;11.720;2023-06-22T06:29:37;17.27;;;8.47;;
7647;SDS011;3866;48.020;11.720;2023-06-22T06:32:04;20.30;;;7.93;;
7647;SDS011;3866;48.020;11.720;2023-06-22T06:34:32;15.23;;;7.83;;
7647;SDS011;3866;48.020;11.720;2023-06-22T06:36:59;14.30;;;8.50;;
7647;SDS011;3866;48.020;11.720;2023-06-22T06:39:26;12.17;;;7.23;;
7647;SDS011;3866;48.020;11.720;2023-06-22T06:41:53;17.60;;;8.40;;
7647;SDS011;3866;48.020;11.720;2023-06-22T06:44:20;18.73;;;8.43;;
7647;SDS011;3866;48.020;11.720;2023-06-22T06:46:47;14.43;;;7.87;;
7647;SDS011;3866;48.020;11.720;2023-06-22T06:49:14;18.83;;;8.50;;
7647;SDS011;3866;48.020;11.720;2023-06-22T06:51:42;13.17;;;8.07;;
7647;SDS011;3866;48.020;11.720;2023-06-22T06:54:09;14.07;;;8.40;;
7647;SDS011;3866;48.020;11.720;2023-06-22T06:56:36;14.07;;;8.30;;
7647;SDS011;3866;48.020;11.720;2023-06-22T06:59:03;18.27;;;8.43;;
7647;SDS011;3866;48.020;11.720;2023-06-22T07:01:29;13.80;;;7.33;;
7647;SDS011;3866;48.020;11.720;2023-06-22T07:03:58;13.83;;;7.40;;
7647;SDS011;3866;48.020;11.720;2023-06-22T07:06:25;15.43;;;7.60;;
7647;SDS011;3866;48.020;11.720;2023-06-22T07:08:58;16.17;;;9.40;;
7647;SDS011;3866;48.020;11.720;2023-06-22T07:11:25;19.67;;;8.00;;
7647;SDS011;3866;48.020;11.720;2023-06-22T07:13:52;12.53;;;7.70;;
7647;SDS011;3866;48.020;11.720;2023-06-22T07:16:19;14.70;;;8.30;;
7647;SDS011;3866;48.020;11.720;2023-06-22T07:18:46;18.23;;;8.17;;
7647;SDS011;3866;48.020;11.720;2023-06-22T07:21:13;13.93;;;7.70;;
7647;SDS011;3866;48.020;11.720;2023-06-22T07:23:40;17.80;;;7.83;;
7647;SDS011;3866;48.020;11.720;2023-06-22T07:26:08;13.43;;;8.37;;
7647;SDS011;3866;48.020;11.720;2023-06-22T07:28:35;13.60;;;7.93;;
7647;SDS011;3866;48.020;11.720;2023-06-22T07:31:03;16.90;;;8.57;;
7647;SDS011;3866;48.020;11.720;2023-06-22T07:33:30;12.83;;;7.40;;
7647;SDS011;3866;48.020;11.720;2023-06-22T07:35:57;12.57;;;7.97;;
7647;SDS011;3866;48.020;11.720;2023-06-22T07:38:23;15.87;;;8.47;;
7647;SDS011;3866;48.020;11.720;2023-06-22T07:40:50;18.30;;;8.37;;
7647;SDS011;3866;48.020;11.720;2023-06-22T07:43:19;13.00;;;7.97;;
7647;SDS011;3866;48.020;11.720;2023-06-22T07:45:48;16.50;;;8.37;;
7647;SDS011;3866;48.020;11.720;2023-06-22T07:48:17;14.20;;;7.43;;
7647;SDS011;3866;48.020;11.720;2023-06-22T07:50:46;13.93;;;8.23;;
7647;SDS011;3866;48.020;11.720;2023-06-22T07:53:13;15.23;;;8.20;;
7647;SDS011;3866;48.020;11.720;2023-06-22T07:55:39;14.43;;;7.27;;
7647;SDS011;3866;48.020;11.720;2023-06-22T07:58:06;18.03;;;8.20;;
7647;SDS011;3866;48.020;11.720;2023-06-22T08:00:35;12.53;;;7.37;;
7647;SDS011;3866;48.020;11.720;2023-06-22T08:03:02;19.97;;;8.50;;
7647;SDS011;3866;48.020;11.720;2023-06-22T08:05:30;13.53;;;7.37;;
7647;SDS011;3866;48.020;11.720;2023-06-22T08:07:57;13.40;;;8.13;;
7647;SDS011;3866;48.020;11.720;2023-06-22T08:10:24;14.67;;;8.37;;
7647;SDS011;3866;48.020;11.720;2023-06-22T08:12:51;13.60;;;7.87;;
7647;SDS011;3866;48.020;11.720;2023-06-22T08:15:18;15.97;;;8.23;;
7647;SDS011;3866;48.020;11.720;2023-06-22T08:17:48;15.77;;;7.57;;
7647;SDS011;3866;48.020;11.720;2023-06-22T08:20:15;16.63;;;7.57;;
7647;SDS011;3866;48.020;11.720;2023-06-22T08:22:42;16.00;;;7.90;;
7647;SDS011;3866;48.020;11.720;2023-06-22T08:25:09;16.70;;;8.30;;
7647;SDS011;3866;48.020;11.720;2023-06-22T08:27:38;14.27;;;8.70;;
7647;SDS011;3866;48.020;11.720;2023-06-22T08:30:05;11.93;;;7.80;;
7647;SDS011;3866;48.020;11.720;2023-06-22T08:32:33;15.10;;;8.00;;
7647;SDS011;3866;48.020;11.720;2023-06-22T08:35:01;15.03;;;8.23;;
7647;SDS011;3866;48.020;11.720;2023-06-22T08:37:28;13.73;;;7.23;;
7647;SDS011;3866;48.020;11.720;2023-06-22T08:39:56;15.63;;;6.97;;
7647;SDS011;3866;48.020;11.720;2023-06-22T08:42:23;12.90;;;7.27;;
7647;SDS011;3866;48.020;11.720;2023-06-22T08:44:50;12.97;;;7.60;;
7647;SDS011;3866;48.020;11.720;2023-06-22T08:47:18;13.30;;;7.53;;
7647;SDS011;3866;48.020;11.720;2023-06-22T08:49:46;13.57;;;7.60;;
7647;SDS011;3866;48.020;11.720;2023-06-22T08:52:14;13.83;;;7.93;;
7647;SDS011;3866;48.020;11.720;2023-06-22T08:54:41;11.70;;;7.37;;
7647;SDS011;3866;48.020;11.720;2023-06-22T08:57:08;14.27;;;6.70;;
7647;SDS011;3866;48.020;11.720;2023-06-22T08:59:36;13.00;;;8.70;;
7647;SDS011;3866;48.020;11.720;2023-06-22T09:02:03;14.67;;;7.70;;
7647;SDS011;3866;48.020;11.720;2023-06-22T09:04:30;13.60;;;7.67;;
7647;SDS011;3866;48.020;11.720;2023-06-22T09:06:59;11.83;;;7.40;;
7647;SDS011;3866;48.020;11.720;2023-06-22T09:09:27;12.40;;;7.40;;
7647;SDS011;3866;48.020;11.720;2023-06-22T09:11:54;13.87;;;8.03;;
7647;SDS011;3866;48.020;11.720;2023-06-22T09:14:21;14.77;;;8.07;;
7647;SDS011;3866;48.020;11.720;2023-06-22T09:16:51;15.57;;;7.60;;
7647;SDS011;3866;48.020;11.720;2023-06-22T09:19:18;14.07;;;7.90;;
7647;SDS011;3866;48.020;11.720;2023-06-22T09:21:45;12.50;;;7.53;;
7647;SDS011;3866;48.020;11.720;2023-06-22T09:24:12;12.57;;;7.37;;
7647;SDS011;3866;48.020;11.720;2023-06-22T09:26:40;13.97;;;7.83;;
7647;SDS011;3866;48.020;11.720;2023-06-22T09:29:07;14.90;;;7.17;;
7647;SDS011;3866;48.020;11.720;2023-06-22T09:31:34;15.20;;;7.23;;
7647;SDS011;3866;48.020;11.720;2023-06-22T09:34:01;15.97;;;7.70;;
7647;SDS011;3866;48.020;11.720;2023-06-22T09:36:28;18.63;;;8.03;;
7647;SDS011;3866;48.020;11.720;2023-06-22T09:38:55;14.17;;;6.97;;
7647;SDS011;3866;48.020;11.720;2023-06-22T09:41:23;14.47;;;7.67;;
7647;SDS011;3866;48.020;11.720;2023-06-22T09:43:52;14.07;;;7.43;;
7647;SDS011;3866;48.020;11.720;2023-06-22T09:46:19;13.03;;;7.40;;
7647;SDS011;3866;48.020;11.720;2023-06-22T09:48:50;14.20;;;7.97;;
7647;SDS011;3866;48.020;11.720;2023-06-22T09:51:16;13.93;;;7.30;;
7647;SDS011;3866;48.020;11.720;2023-06-22T09:53:44;10.77;;;7.20;;
7647;SDS011;3866;48.020;11.720;2023-06-22T09:56:10;11.47;;;7.30;;
7647;SDS011;3866;48.020;11.720;2023-06-22T09:58:40;14.83;;;7.70;;
7647;SDS011;3866;48.020;11.720;2023-06-22T10:01:08;16.13;;;7.43;;
7647;SDS011;3866;48.020;11.720;2023-06-22T10:03:36;9.90;;;7.03;;
7647;SDS011;3866;48.020;11.720;2023-06-22T10:06:03;15.20;;;7.50;;
7647;SDS011;3866;48.020;11.720;2023-06-22T10:08:30;16.27;;;7.20;;
7647;SDS011;3866;48.020;11.720;2023-06-22T10:10:59;14.30;;;7.17;;
7647;SDS011;3866;48.020;11.720;2023-06-22T10:13:26;11.83;;;6.87;;
7647;SDS011;3866;48.020;11.720;2023-06-22T10:15:53;15.03;;;7.33;;
7647;SDS011;3866;48.020;11.720;2023-06-22T10:18:21;13.70;;;7.07;;
7647;SDS011;3866;48.020;11.720;2023-06-22T10:20:49;16.10;;;7.03;;
7647;SDS011;3866;48.020;11.720;2023-06-22T10:23:17;12.77;;;7.40;;
7647;SDS011;3866;48.020;11.720;2023-06-22T10:25:44;16.60;;;7.40;;
7647;SDS011;3866;48.020;11.720;2023-06-22T10:28:11;14.87;;;7.30;;
7647;SDS011;3866;48.020;11.720;2023-06-22T10:30:38;13.30;;;7.20;;
7647;SDS011;3866;48.020;11.720;2023-06-22T10:33:06;11.83;;;6.63;;
7647;SDS011;3866;48.020;11.720;2023-06-22T10:35:34;12.13;;;7.00;;
7647;SDS011;3866;48.020;11.720;2023-06-22T10:38:02;15.40;;;7.10;;
7647;SDS011;3866;48.020;11.720;2023-06-22T10:40:30;14.47;;;7.23;;
7647;SDS011;3866;48.020;11.720;2023-06-22T10:42:57;12.83;;;6.67;;
7647;SDS011;3866;48.020;11.720;2023-06-22T10:45:24;14.23;;;6.70;;
7647;SDS011;3866;48.020;11.720;2023-06-22T10:47:52;12.83;;;6.93;;
7647;SDS011;3866;48.020;11.720;2023-06-22T10:50:19;14.13;;;7.30;;
7647;SDS011;3866;48.020;11.720;2023-06-22T10:52:47;15.40;;;6.13;;
7647;SDS011;3866;48.020;11.720;2023-06-22T10:55:14;14.57;;;7.20;;
7647;SDS011;3866;48.020;11.720;2023-06-22T10:57:41;16.83;;;7.03;;
7647;SDS011;3866;48.020;11.720;2023-06-22T11:00:09;15.50;;;7.23;;
7647;SDS011;3866;48.020;11.720;2023-06-22T11:02:37;20.30;;;7.10;;
7647;SDS011;3866;48.020;11.720;2023-06-22T11:05:04;16.53;;;6.97;;
7647;SDS011;3866;48.020;11.720;2023-06-22T11:07:32;16.23;;;7.60;;
7647;SDS011;3866;48.020;11.720;2023-06-22T11:10:01;12.10;;;6.60;;
7647;SDS011;3866;48.020;11.720;2023-06-22T11:12:29;14.90;;;7.13;;
7647;SDS011;3866;48.020;11.720;2023-06-22T11:14:56;16.43;;;8.30;;
7647;SDS011;3866;48.020;11.720;2023-06-22T11:17:23;13.37;;;6.90;;
7647;SDS011;3866;48.020;11.720;2023-06-22T11:19:50;16.87;;;7.37;;
7647;SDS011;3866;48.020;11.720;2023-06-22T11:22:17;13.95;;;7.10;;
7647;SDS011;3866;48.020;11.720;2023-06-22T11:24:44;18.42;;;7.13;;
7647;SDS011;3866;48.020;11.720;2023-06-22T11:27:12;13.80;;;6.50;;
7647;SDS011;3866;48.020;11.720;2023-06-22T11:29:39;16.47;;;7.50;;
7647;SDS011;3866;48.020;11.720;2023-06-22T11:32:06;15.33;;;7.43;;
7647;SDS011;3866;48.020;11.720;2023-06-22T11:34:33;13.73;;;7.00;;
7647;SDS011;3866;48.020;11.720;2023-06-22T11:37:00;16.27;;;6.90;;
7647;SDS011;3866;48.020;11.720;2023-06-22T11:39:27;12.52;;;6.93;;
7647;SDS011;3866;48.020;11.720;2023-06-22T11:41:54;14.07;;;6.80;;
7647;SDS011;3866;48.020;11.720;2023-06-22T11:44:22;11.63;;;6.20;;
7647;SDS011;3866;48.020;11.720;2023-06-22T11:46:49;12.65;;;6.88;;
7647;SDS011;3866;48.020;11.720;2023-06-22T11:49:16;10.05;;;6.63;;
7647;SDS011;3866;48.020;11.720;2023-06-22T11:51:43;14.82;;;7.18;;
7647;SDS011;3866;48.020;11.720;2023-06-22T11:54:10;13.48;;;6.65;;
7647;SDS011;3866;48.020;11.720;2023-06-22T11:56:36;13.68;;;7.30;;
7647;SDS011;3866;48.020;11.720;2023-06-22T11:59:03;15.23;;;6.82;;
7647;SDS011;3866;48.020;11.720;2023-06-22T12:01:31;16.55;;;6.60;;
7647;SDS011;3866;48.020;11.720;2023-06-22T12:03:59;13.70;;;6.72;;
7647;SDS011;3866;48.020;11.720;2023-06-22T12:06:26;13.43;;;7.00;;
7647;SDS011;3866;48.020;11.720;2023-06-22T12:08:52;11.80;;;6.55;;
7647;SDS011;3866;48.020;11.720;2023-06-22T12:11:19;17.10;;;7.05;;
7647;SDS011;3866;48.020;11.720;2023-06-22T12:13:46;16.48;;;6.47;;
7647;SDS011;3866;48.020;11.720;2023-06-22T12:16:13;11.85;;;6.38;;
7647;SDS011;3866;48.020;11.720;2023-06-22T12:18:41;15.30;;;6.80;;
7647;SDS011;3866;48.020;11.720;2023-06-22T12:21:08;11.77;;;6.95;;
7647;SDS011;3866;48.020;11.720;2023-06-22T12:23:35;15.70;;;6.38;;
7647;SDS011;3866;48.020;11.720;2023-06-22T12:26:02;16.08;;;6.45;;
7647;SDS011;3866;48.020;11.720;2023-06-22T12:28:28;14.57;;;6.50;;
7647;SDS011;3866;48.020;11.720;2023-06-22T12:30:55;13.93;;;6.32;;
7647;SDS011;3866;48.020;11.720;2023-06-22T12:33:22;17.55;;;6.63;;
7647;SDS011;3866;48.020;11.720;2023-06-22T12:35:50;18.60;;;6.55;;
7647;SDS011;3866;48.020;11.720;2023-06-22T12:38:17;17.63;;;6.50;;
7647;SDS011;3866;48.020;11.720;2023-06-22T12:40:44;17.08;;;6.50;;
7647;SDS011;3866;48.020;11.720;2023-06-22T12:43:12;14.07;;;5.68;;
7647;SDS011;3866;48.020;11.720;2023-06-22T12:45:39;12.88;;;6.43;;
7647;SDS011;3866;48.020;11.720;2023-06-22T12:48:06;12.07;;;6.22;;
7647;SDS011;3866;48.020;11.720;2023-06-22T12:50:33;12.65;;;6.35;;
7647;SDS011;3866;48.020;11.720;2023-06-22T12:53:01;16.45;;;6.30;;
7647;SDS011;3866;48.020;11.720;2023-06-22T12:55:29;11.10;;;5.47;;
7647;SDS011;3866;48.020;11.720;2023-06-22T12:57:56;15.07;;;6.57;;
7647;SDS011;3866;48.020;11.720;2023-06-22T13:00:23;16.15;;;6.57;;
7647;SDS011;3866;48.020;11.720;2023-06-22T13:02:49;14.43;;;6.32;;
7647;SDS011;3866;48.020;11.720;2023-06-22T13:05:16;13.93;;;6.13;;
7647;SDS011;3866;48.020;11.720;2023-06-22T13:07:43;12.95;;;6.30;;
7647;SDS011;3866;48.020;11.720;2023-06-22T13:10:12;12.50;;;6.57;;
7647;SDS011;3866;48.020;11.720;2023-06-22T13:12:39;13.95;;;6.03;;
7647;SDS011;3866;48.020;11.720;2023-06-22T13:15:06;11.02;;;6.22;;
7647;SDS011;3866;48.020;11.720;2023-06-22T13:17:33;13.20;;;6.80;;
7647;SDS011;3866;48.020;11.720;2023-06-22T13:20:00;15.02;;;6.68;;
7647;SDS011;3866;48.020;11.720;2023-06-22T13:22:29;12.68;;;6.20;;
7647;SDS011;3866;48.020;11.720;2023-06-22T13:24:57;11.73;;;6.28;;
7647;SDS011;3866;48.020;11.720;2023-06-22T13:27:26;14.38;;;6.82;;
7647;SDS011;3866;48.020;11.720;2023-06-22T13:29:53;10.95;;;6.55;;
7647;SDS011;3866;48.020;11.720;2023-06-22T13:32:20;17.05;;;7.35;;
7647;SDS011;3866;48.020;11.720;2023-06-22T13:34:47;17.90;;;7.18;;
7647;SDS011;3866;48.020;11.720;2023-06-22T13:37:14;16.05;;;7.07;;
7647;SDS011;3866;48.020;11.720;2023-06-22T13:39:41;14.55;;;6.00;;
7647;SDS011;3866;48.020;11.720;2023-06-22T13:42:08;18.17;;;6.05;;
7647;SDS011;3866;48.020;11.720;2023-06-22T13:44:36;10.40;;;5.88;;
7647;SDS011;3866;48.020;11.720;2023-06-22T13:47:03;14.25;;;6.47;;
7647;SDS011;3866;48.020;11.720;2023-06-22T13:49:30;9.95;;;5.28;;
7647;SDS011;3866;48.020;11.720;2023-06-22T13:51:57;16.27;;;6.60;;
7647;SDS011;3866;48.020;11.720;2023-06-22T13:54:24;16.10;;;6.57;;
7647;SDS011;3866;48.020;11.720;2023-06-22T13:56:51;14.55;;;6.10;;
7647;SDS011;3866;48.020;11.720;2023-06-22T13:59:18;14.80;;;7.20;;
7647;SDS011;3866;48.020;11.720;2023-06-22T14:01:47;11.82;;;6.55;;
7647;SDS011;3866;48.020;11.720;2023-06-22T14:04:14;13.43;;;6.03;;
7647;SDS011;3866;48.020;11.720;2023-06-22T14:06:41;13.88;;;5.97;;
7647;SDS011;3866;48.020;11.720;2023-06-22T14:09:08;13.70;;;5.85;;
7647;SDS011;3866;48.020;11.720;2023-06-22T14:11:34;13.05;;;6.00;;
7647;SDS011;3866;48.020;11.720;2023-06-22T14:14:02;15.20;;;5.70;;
7647;SDS011;3866;48.020;11.720;2023-06-22T14:16:29;14.50;;;6.70;;
7647;SDS011;3866;48.020;11.720;2023-06-22T14:18:57;10.85;;;5.60;;
7647;SDS011;3866;48.020;11.720;2023-06-22T14:21:25;15.85;;;5.55;;
7647;SDS011;3866;48.020;11.720;2023-06-22T14:23:52;10.77;;;5.45;;
7647;SDS011;3866;48.020;11.720;2023-06-22T14:26:19;13.85;;;5.93;;
7647;SDS011;3866;48.020;11.720;2023-06-22T14:28:46;12.80;;;6.05;;
7647;SDS011;3866;48.020;11.720;2023-06-22T14:31:13;15.40;;;6.45;;
7647;SDS011;3866;48.020;11.720;2023-06-22T14:33:40;13.35;;;5.53;;
7647;SDS011;3866;48.020;11.720;2023-06-22T14:36:16;17.48;;;6.30;;
7647;SDS011;3866;48.020;11.720;2023-06-22T14:38:43;11.65;;;5.63;;
7647;SDS011;3866;48.020;11.720;2023-06-22T14:41:11;16.77;;;6.65;;
7647;SDS011;3866;48.020;11.720;2023-06-22T14:43:38;10.13;;;6.22;;
7647;SDS011;3866;48.020;11.720;2023-06-22T14:46:04;14.52;;;6.20;;
7647;SDS011;3866;48.020;11.720;2023-06-22T14:48:31;13.98;;;5.88;;
7647;SDS011;3866;48.020;11.720;2023-06-22T14:50:58;13.05;;;6.15;;